Kenneth City, Florida
Current Conditions -  °F | °C
As of 8:53 AM on Saturday 25 Oct 2014 (Local Time) from KSPG Reporting Station
Clear Clear  
Wind Chill: 69°   Ceiling: Unl
Heat Index: 69°   Visibility: 10mi
Dew Point: 56°   Wind: 8mph
Humidity: 63%   Direction: 20°NNE
Pressure: 29.98"   Gusts: NA
Location:  27.8183°N, 82.7292°W
Report Text: KSPG 251253Z 02007KT 10SM CLR 21/13 A2998 RMK AO2 SLP153 T02060133
Loading
Personal Weather Stations






























Interactive Weather Map
Tropical Storm Tracking
New forecast layout! Learn more

10-Day Weather Forecast

Advertisements
Track Severe Weather on mobile